createdAt,value
2019-03-09T00:01:33.044Z,30.73
2019-03-09T00:04:11.186Z,30.10
2019-03-09T00:06:45.910Z,29.77
2019-03-09T00:09:21.615Z,29.87
2019-03-09T00:11:56.422Z,30.07
2019-03-09T00:14:31.126Z,29.93
2019-03-09T00:17:05.913Z,30.13
2019-03-09T00:19:40.635Z,29.93
2019-03-09T00:22:15.383Z,29.90
2019-03-09T00:24:55.031Z,29.77
2019-03-09T00:28:04.244Z,30.13
2019-03-09T00:30:46.894Z,30.20
2019-03-09T00:33:21.643Z,29.93
2019-03-09T00:35:56.447Z,29.83
2019-03-09T00:38:31.179Z,29.73
2019-03-09T00:41:05.903Z,30.40
2019-03-09T00:43:40.651Z,30.00
2019-03-09T00:46:15.446Z,29.73
2019-03-09T00:48:50.175Z,29.87
2019-03-09T00:51:25.179Z,29.97
2019-03-09T00:54:00.011Z,29.47
2019-03-09T00:56:34.723Z,30.37
2019-03-09T00:59:09.459Z,30.10
2019-03-09T01:01:44.324Z,30.20
2019-03-09T01:04:19.054Z,29.90
2019-03-09T01:06:53.779Z,30.07
2019-03-09T01:09:28.591Z,30.30
2019-03-09T01:12:03.505Z,29.73
2019-03-09T01:14:38.230Z,29.37
2019-03-09T01:17:13.042Z,30.07
2019-03-09T01:19:47.852Z,29.13
2019-03-09T01:22:22.665Z,29.57
2019-03-09T01:24:57.419Z,29.77
2019-03-09T01:27:32.238Z,30.43
2019-03-09T01:30:09.730Z,33.07
2019-03-09T01:32:44.606Z,30.27
2019-03-09T01:35:20.379Z,30.97
2019-03-09T01:37:55.243Z,29.60
2019-03-09T01:40:30.192Z,30.03
2019-03-09T01:43:05.118Z,29.97
2019-03-09T01:45:39.875Z,30.93
2019-03-09T01:48:14.582Z,30.63
2019-03-09T01:50:49.308Z,31.57
2019-03-09T01:53:24.051Z,31.23
2019-03-09T01:55:58.788Z,31.73
2019-03-09T01:58:33.622Z,30.17
2019-03-09T02:01:09.313Z,30.87
2019-03-09T02:03:44.138Z,30.33
2019-03-09T02:06:18.853Z,30.33
2019-03-09T02:08:53.653Z,29.23
2019-03-09T02:11:28.586Z,29.50
2019-03-09T02:14:03.398Z,30.50
2019-03-09T02:16:39.166Z,29.70
2019-03-09T02:19:13.901Z,29.73
2019-03-09T02:21:48.622Z,29.67
2019-03-09T02:24:23.362Z,30.43
2019-03-09T02:26:58.251Z,29.77
2019-03-09T02:29:33.003Z,30.47
2019-03-09T02:32:07.812Z,31.23
2019-03-09T02:34:42.554Z,30.30
2019-03-09T02:37:17.286Z,29.73
2019-03-09T02:39:57.488Z,30.13
2019-03-09T02:42:32.208Z,29.23
2019-03-09T02:45:09.061Z,29.73
2019-03-09T02:47:43.998Z,31.53
2019-03-09T02:50:18.959Z,29.10
2019-03-09T02:52:53.685Z,29.37
2019-03-09T02:55:29.510Z,30.37
2019-03-09T02:58:04.217Z,30.27
2019-03-09T03:00:45.755Z,29.90
2019-03-09T03:03:20.467Z,29.70
2019-03-09T03:05:56.273Z,29.77
2019-03-09T03:08:31.015Z,29.73
2019-03-09T03:11:05.896Z,29.73
2019-03-09T03:13:40.860Z,29.43
2019-03-09T03:16:15.600Z,29.40
2019-03-09T03:18:50.325Z,29.47
2019-03-09T03:21:25.171Z,29.70
2019-03-09T03:23:59.898Z,29.23
2019-03-09T03:26:34.604Z,29.73
2019-03-09T03:29:09.440Z,29.97
2019-03-09T03:31:44.210Z,29.40
2019-03-09T03:34:18.969Z,30.67
2019-03-09T03:36:53.774Z,29.27
2019-03-09T03:39:28.529Z,30.20
2019-03-09T03:42:03.571Z,29.10
2019-03-09T03:44:47.431Z,29.23
2019-03-09T03:47:22.211Z,29.73
2019-03-09T03:50:16.224Z,29.40
2019-03-09T03:52:50.991Z,30.40
2019-03-09T03:55:25.964Z,29.80
2019-03-09T03:58:00.788Z,29.40
2019-03-09T04:00:35.816Z,29.43
2019-03-09T04:03:10.737Z,29.77
2019-03-09T04:05:45.837Z,29.57
2019-03-09T04:08:21.015Z,29.33
2019-03-09T04:10:55.851Z,29.27
2019-03-09T04:13:30.721Z,29.07
2019-03-09T04:16:05.643Z,29.20
2019-03-09T04:18:40.587Z,29.33
2019-03-09T04:21:15.369Z,29.80
2019-03-09T04:23:50.195Z,29.80
2019-03-09T04:26:26.173Z,29.20
2019-03-09T04:29:00.992Z,29.40
2019-03-09T04:31:35.781Z,31.50
2019-03-09T04:34:11.103Z,30.47
2019-03-09T04:36:45.864Z,29.87
2019-03-09T04:39:20.643Z,29.30
2019-03-09T04:41:55.510Z,28.73
2019-03-09T04:44:30.280Z,28.97
2019-03-09T04:47:05.203Z,29.20
2019-03-09T04:49:40.013Z,28.97
2019-03-09T04:52:14.775Z,30.17
2019-03-09T04:54:49.508Z,29.47
2019-03-09T04:57:24.274Z,30.17
2019-03-09T04:59:59.022Z,29.47
2019-03-09T05:02:33.768Z,29.13
2019-03-09T05:05:09.191Z,29.10
2019-03-09T05:07:59.558Z,29.07
2019-03-09T05:10:45.148Z,29.00
2019-03-09T05:13:26.627Z,29.40
2019-03-09T05:16:01.507Z,28.77
2019-03-09T05:18:36.240Z,28.87
2019-03-09T05:21:11.097Z,29.20
2019-03-09T05:23:45.830Z,29.20
2019-03-09T05:26:20.583Z,28.83
2019-03-09T05:28:55.340Z,29.07
2019-03-09T05:31:30.168Z,29.50
2019-03-09T05:34:04.997Z,29.13
2019-03-09T05:36:39.824Z,29.17
2019-03-09T05:39:14.570Z,28.83
2019-03-09T05:41:49.337Z,29.03
2019-03-09T05:44:24.157Z,28.77
2019-03-09T05:46:58.987Z,28.40
2019-03-09T05:49:33.751Z,29.30
2019-03-09T05:52:30.591Z,30.07
2019-03-09T05:55:18.539Z,28.92
2019-03-09T05:57:53.359Z,28.47
2019-03-09T06:00:28.180Z,28.90
2019-03-09T06:03:03.207Z,28.70
2019-03-09T06:06:07.291Z,28.77
2019-03-09T06:08:42.223Z,28.53
2019-03-09T06:11:17.067Z,28.73
2019-03-09T06:13:51.896Z,29.03
2019-03-09T06:16:26.657Z,29.17
2019-03-09T06:19:01.413Z,28.97
2019-03-09T06:21:36.256Z,29.63
2019-03-09T06:24:11.015Z,28.77
2019-03-09T06:26:45.991Z,29.33
2019-03-09T06:29:20.731Z,28.93
2019-03-09T06:32:47.772Z,29.07
2019-03-09T06:35:22.534Z,28.63
2019-03-09T06:38:15.759Z,28.47
2019-03-09T06:40:50.579Z,28.73
2019-03-09T06:43:25.346Z,28.73
2019-03-09T06:46:00.149Z,28.63
2019-03-09T06:48:34.891Z,28.70
2019-03-09T06:51:09.710Z,29.50
2019-03-09T06:53:44.563Z,28.93
2019-03-09T06:56:19.401Z,29.27
2019-03-09T06:58:54.328Z,29.23
2019-03-09T07:01:29.087Z,29.47
2019-03-09T07:04:03.978Z,29.17
2019-03-09T07:06:38.838Z,28.90
2019-03-09T07:09:13.660Z,28.63
2019-03-09T07:11:48.434Z,29.87
2019-03-09T07:15:09.729Z,28.60
2019-03-09T07:17:44.476Z,28.87
2019-03-09T07:20:19.296Z,28.57
2019-03-09T07:22:54.043Z,28.73
2019-03-09T07:25:28.912Z,28.53
2019-03-09T07:28:05.752Z,29.43
2019-03-09T07:30:40.662Z,28.93
2019-03-09T07:33:15.644Z,28.87
2019-03-09T07:35:50.596Z,29.50
2019-03-09T07:38:25.460Z,28.97
2019-03-09T07:41:00.300Z,29.47
2019-03-09T07:43:35.206Z,28.83
2019-03-09T07:46:10.110Z,28.80
2019-03-09T07:48:44.995Z,28.50
2019-03-09T07:51:19.760Z,29.60
2019-03-09T07:53:54.495Z,29.07
2019-03-09T07:56:29.370Z,29.87
2019-03-09T07:59:04.331Z,29.67
2019-03-09T08:01:39.133Z,31.80
2019-03-09T08:04:13.890Z,29.63
2019-03-09T08:06:51.744Z,29.37
2019-03-09T08:09:26.492Z,28.80
2019-03-09T08:12:01.236Z,28.97
2019-03-09T08:14:36.072Z,29.13
2019-03-09T08:17:10.817Z,28.87
2019-03-09T08:19:45.563Z,28.57
2019-03-09T08:22:20.383Z,29.97
2019-03-09T08:24:55.148Z,28.70
2019-03-09T08:27:29.888Z,28.30
2019-03-09T08:30:06.194Z,29.37
2019-03-09T08:32:42.032Z,29.30
2019-03-09T08:35:18.202Z,29.33
2019-03-09T08:37:53.100Z,28.60
2019-03-09T08:40:27.910Z,29.53
2019-03-09T08:43:02.753Z,29.40
2019-03-09T08:45:37.705Z,29.30
2019-03-09T08:48:12.486Z,29.77
2019-03-09T08:50:47.372Z,29.60
2019-03-09T08:53:22.212Z,29.53
2019-03-09T08:55:56.960Z,30.50
2019-03-09T08:58:32.730Z,30.17
2019-03-09T09:01:07.707Z,30.17
2019-03-09T09:03:42.516Z,29.67
2019-03-09T09:06:17.235Z,29.03
2019-03-09T09:08:51.996Z,29.27
2019-03-09T09:11:26.811Z,29.37
2019-03-09T09:14:01.572Z,29.40
2019-03-09T09:16:36.335Z,29.83
2019-03-09T09:19:11.143Z,29.50
2019-03-09T09:21:45.963Z,29.50
2019-03-09T09:24:20.744Z,29.50
2019-03-09T09:26:55.522Z,29.10
2019-03-09T09:29:30.303Z,29.33
2019-03-09T09:32:05.136Z,29.47
2019-03-09T09:34:39.892Z,29.43
2019-03-09T09:37:14.714Z,29.07
2019-03-09T09:39:49.602Z,29.13
2019-03-09T09:42:24.435Z,28.87
2019-03-09T09:44:59.296Z,29.03
2019-03-09T09:47:34.052Z,28.90
2019-03-09T09:50:09.884Z,29.03
2019-03-09T09:52:44.887Z,29.63
2019-03-09T09:55:19.814Z,29.93
2019-03-09T09:57:54.579Z,30.50
2019-03-09T10:00:29.483Z,30.07
2019-03-09T10:03:05.359Z,30.53
2019-03-09T10:05:40.151Z,30.17
2019-03-09T10:08:15.086Z,29.13
2019-03-09T10:10:49.837Z,29.20
2019-03-09T10:13:24.640Z,29.43
2019-03-09T10:15:59.547Z,30.13
2019-03-09T10:18:34.291Z,29.30
2019-03-09T10:21:09.133Z,30.50
2019-03-09T10:23:44.905Z,29.27
2019-03-09T10:26:19.735Z,31.60
2019-03-09T10:28:54.516Z,30.07
2019-03-09T10:31:29.433Z,31.20
2019-03-09T10:34:04.279Z,30.87
2019-03-09T10:36:39.019Z,30.80
2019-03-09T10:39:13.912Z,31.90
2019-03-09T10:41:48.959Z,33.37
2019-03-09T10:44:23.726Z,31.20
2019-03-09T10:46:58.551Z,31.13
2019-03-09T10:49:33.295Z,30.43
2019-03-09T10:52:08.038Z,30.70
2019-03-09T10:54:42.794Z,30.37
2019-03-09T10:57:17.601Z,29.90
2019-03-09T10:59:52.348Z,30.17
2019-03-09T11:02:27.160Z,29.73
2019-03-09T11:05:01.944Z,30.63
2019-03-09T11:07:36.827Z,30.17
2019-03-09T11:10:12.319Z,29.13
2019-03-09T11:12:47.129Z,28.93
2019-03-09T11:15:22.108Z,28.67
2019-03-09T11:17:57.000Z,29.37
2019-03-09T11:20:31.824Z,29.30
2019-03-09T11:23:06.639Z,29.83
2019-03-09T11:25:41.512Z,29.97
2019-03-09T11:28:16.251Z,29.60
2019-03-09T11:30:51.063Z,29.40
2019-03-09T11:33:25.969Z,29.40
2019-03-09T11:36:00.827Z,30.30
2019-03-09T11:38:35.579Z,29.50
2019-03-09T11:41:18.794Z,29.53
2019-03-09T11:43:46.775Z,29.57
2019-03-09T11:46:21.539Z,29.40
2019-03-09T11:48:56.354Z,29.23
2019-03-09T11:51:31.116Z,30.17
2019-03-09T11:54:05.934Z,29.40
2019-03-09T11:56:41.482Z,29.27
2019-03-09T11:59:16.339Z,29.27
2019-03-09T12:01:51.164Z,29.37
2019-03-09T12:04:25.940Z,30.33
2019-03-09T12:07:01.368Z,30.40
2019-03-09T12:09:36.112Z,29.87
2019-03-09T12:12:10.869Z,29.13
2019-03-09T12:14:45.643Z,29.87
2019-03-09T12:17:21.448Z,29.27
2019-03-09T12:19:56.254Z,29.67
2019-03-09T12:22:31.044Z,30.30
2019-03-09T12:25:09.115Z,30.20
2019-03-09T12:27:44.012Z,29.70
2019-03-09T12:30:18.934Z,30.10
2019-03-09T12:32:53.782Z,30.10
2019-03-09T12:35:28.523Z,30.20
2019-03-09T12:38:03.287Z,29.77
2019-03-09T12:40:38.103Z,30.53
2019-03-09T12:43:13.030Z,29.50
2019-03-09T12:45:47.827Z,29.50
2019-03-09T12:48:22.664Z,29.57
2019-03-09T12:50:57.471Z,32.50
2019-03-09T12:53:32.383Z,32.80
2019-03-09T12:56:07.127Z,31.07
2019-03-09T12:58:41.923Z,29.87
2019-03-09T13:01:16.846Z,30.20
2019-03-09T13:03:51.604Z,29.70
2019-03-09T13:06:26.408Z,29.80
2019-03-09T13:09:01.293Z,30.03
2019-03-09T13:11:37.449Z,29.50
2019-03-09T13:14:12.348Z,30.17
2019-03-09T13:16:47.167Z,29.80
2019-03-09T13:19:21.978Z,29.33
2019-03-09T13:21:56.864Z,30.00
2019-03-09T13:24:31.688Z,30.50
2019-03-09T13:27:06.439Z,30.00
2019-03-09T13:29:41.618Z,30.87
2019-03-09T13:32:16.430Z,30.63
2019-03-09T13:34:51.251Z,30.40
2019-03-09T13:37:26.296Z,29.80
2019-03-09T13:40:01.093Z,30.03
2019-03-09T13:42:36.292Z,29.63
2019-03-09T13:45:12.435Z,29.60
2019-03-09T13:47:47.189Z,29.77
2019-03-09T13:50:21.924Z,29.47
2019-03-09T13:52:56.701Z,30.30
2019-03-09T13:55:31.536Z,30.17
2019-03-09T13:58:06.436Z,30.13
2019-03-09T14:00:41.383Z,30.83
2019-03-09T14:03:16.131Z,30.17
2019-03-09T14:05:51.124Z,30.43
2019-03-09T14:08:25.951Z,30.07
2019-03-09T14:11:00.692Z,30.97
2019-03-09T14:13:35.453Z,29.87
2019-03-09T14:16:10.184Z,30.17
2019-03-09T14:18:44.963Z,30.37
2019-03-09T14:21:20.975Z,30.47
2019-03-09T14:23:55.727Z,29.87
2019-03-09T14:26:31.438Z,30.53
2019-03-09T14:29:06.260Z,29.67
2019-03-09T14:31:40.999Z,29.80
2019-03-09T14:34:15.760Z,30.60
2019-03-09T14:36:50.527Z,29.60
2019-03-09T14:39:25.307Z,30.47
2019-03-09T14:42:00.084Z,29.93
2019-03-09T14:44:34.831Z,29.77
2019-03-09T14:47:09.596Z,30.93
2019-03-09T14:49:46.920Z,31.03
2019-03-09T14:52:21.741Z,30.97
2019-03-09T14:54:56.467Z,30.47
2019-03-09T14:57:31.289Z,30.23
2019-03-09T15:00:08.519Z,30.07
2019-03-09T15:02:43.333Z,31.40
2019-03-09T15:05:18.235Z,30.63
2019-03-09T15:07:53.063Z,30.17
2019-03-09T15:10:27.960Z,29.30
2019-03-09T15:13:02.792Z,29.63
2019-03-09T15:15:37.693Z,29.63
2019-03-09T15:18:12.431Z,30.30
2019-03-09T15:20:47.230Z,29.63
2019-03-09T15:23:22.090Z,30.20
2019-03-09T15:25:56.864Z,30.00
2019-03-09T15:28:31.712Z,30.50
2019-03-09T15:31:06.488Z,30.43
2019-03-09T15:33:41.251Z,30.07
2019-03-09T15:36:16.044Z,30.40
2019-03-09T15:38:50.799Z,30.37
2019-03-09T15:41:25.559Z,29.90
2019-03-09T15:44:00.402Z,29.90
2019-03-09T15:46:35.241Z,30.17
2019-03-09T15:49:10.056Z,30.43
2019-03-09T15:51:44.880Z,32.20
2019-03-09T15:54:19.644Z,30.90
2019-03-09T15:56:54.374Z,30.33
2019-03-09T15:59:29.229Z,30.13
2019-03-09T16:02:09.546Z,29.53
2019-03-09T16:04:44.483Z,30.17
2019-03-09T16:07:19.416Z,29.43
2019-03-09T16:09:54.265Z,29.77
2019-03-09T16:12:29.071Z,29.33
2019-03-09T16:15:04.280Z,29.97
2019-03-09T16:17:39.170Z,29.37
2019-03-09T16:20:15.394Z,29.60
2019-03-09T16:22:50.230Z,29.70
2019-03-09T16:25:25.190Z,29.80
2019-03-09T16:28:00.013Z,30.03
2019-03-09T16:30:34.907Z,30.17
2019-03-09T16:33:09.673Z,29.97
2019-03-09T16:35:44.670Z,29.73
2019-03-09T16:38:19.492Z,29.97
2019-03-09T16:40:54.369Z,29.70
2019-03-09T16:43:29.103Z,29.73
2019-03-09T16:46:03.938Z,30.50
2019-03-09T16:48:38.746Z,30.43
2019-03-09T16:51:13.511Z,30.40
2019-03-09T16:53:48.425Z,31.70
2019-03-09T16:56:24.229Z,30.23
2019-03-09T16:58:59.089Z,29.97
2019-03-09T17:01:34.297Z,30.20
2019-03-09T17:04:09.155Z,30.90
2019-03-09T17:06:43.871Z,29.77
2019-03-09T17:09:18.816Z,29.60
2019-03-09T17:11:53.736Z,29.83
2019-03-09T17:14:28.623Z,30.40
2019-03-09T17:17:03.431Z,30.33
2019-03-09T17:19:39.159Z,29.97
2019-03-09T17:22:13.978Z,30.27
2019-03-09T17:24:48.855Z,30.10
2019-03-09T17:27:24.640Z,30.07
2019-03-09T17:29:59.429Z,30.73
2019-03-09T17:32:34.327Z,30.50
2019-03-09T17:35:09.264Z,29.97
2019-03-09T17:37:44.509Z,30.00
2019-03-09T17:40:19.323Z,29.50
2019-03-09T17:42:54.096Z,29.37
2019-03-09T17:45:29.604Z,30.10
2019-03-09T17:48:04.520Z,30.00
2019-03-09T17:50:39.399Z,30.13
2019-03-09T17:53:14.216Z,30.07
2019-03-09T17:55:49.103Z,30.03
2019-03-09T17:58:23.875Z,31.10
2019-03-09T18:00:58.724Z,30.27
2019-03-09T18:03:33.463Z,30.27
2019-03-09T18:06:09.195Z,30.17
2019-03-09T18:08:44.012Z,29.73
2019-03-09T18:11:18.860Z,46.13
2019-03-09T18:13:53.680Z,63.23
2019-03-09T18:16:28.608Z,46.23
2019-03-09T18:19:04.512Z,41.57
2019-03-09T18:21:39.275Z,66.27
2019-03-09T18:24:14.066Z,82.10
2019-03-09T18:26:48.819Z,39.03
2019-03-09T18:29:23.848Z,34.43
2019-03-09T18:31:58.624Z,31.20
2019-03-09T18:34:33.386Z,32.03
2019-03-09T18:37:08.163Z,30.57
2019-03-09T18:39:43.019Z,30.60
2019-03-09T18:42:18.077Z,30.67
2019-03-09T18:44:52.815Z,30.57
2019-03-09T18:47:27.615Z,30.87
2019-03-09T18:50:02.540Z,30.47
2019-03-09T18:52:37.548Z,30.80
2019-03-09T18:55:12.461Z,30.43
2019-03-09T18:57:47.356Z,31.37
2019-03-09T19:00:22.496Z,30.73
2019-03-09T19:02:57.314Z,30.20
2019-03-09T19:05:34.571Z,30.43
2019-03-09T19:08:09.319Z,29.73
2019-03-09T19:10:44.147Z,30.30
2019-03-09T19:13:27.201Z,31.03
2019-03-09T19:16:03.700Z,31.90
2019-03-09T19:18:38.528Z,30.60
2019-03-09T19:21:13.738Z,32.10
2019-03-09T19:23:48.508Z,30.80
2019-03-09T19:26:23.288Z,30.67
2019-03-09T19:28:58.019Z,30.30
2019-03-09T19:31:32.778Z,30.73
2019-03-09T19:34:07.527Z,31.03
2019-03-09T19:36:42.291Z,30.13
2019-03-09T19:39:17.051Z,30.80
2019-03-09T19:41:51.817Z,30.47
2019-03-09T19:44:26.635Z,30.13
2019-03-09T19:47:01.775Z,29.97
2019-03-09T19:49:36.544Z,30.50
2019-03-09T19:52:11.303Z,30.40
2019-03-09T19:54:46.179Z,31.23
2019-03-09T19:57:20.948Z,31.60
2019-03-09T19:59:55.701Z,32.33
2019-03-09T20:02:31.432Z,30.83
2019-03-09T20:05:07.438Z,30.93
2019-03-09T20:07:42.399Z,30.23
2019-03-09T20:10:17.323Z,30.33
2019-03-09T20:12:52.161Z,30.17
2019-03-09T20:15:26.976Z,30.00
2019-03-09T20:18:01.807Z,30.57
2019-03-09T20:20:36.627Z,30.07
2019-03-09T20:23:13.600Z,30.70
2019-03-09T20:25:48.411Z,30.37
2019-03-09T20:28:23.167Z,30.80
2019-03-09T20:30:58.019Z,31.70
2019-03-09T20:33:33.811Z,31.43
2019-03-09T20:36:08.621Z,31.70
2019-03-09T20:38:44.480Z,30.93
2019-03-09T20:41:19.397Z,31.83
2019-03-09T20:43:58.082Z,30.60
2019-03-09T20:46:41.693Z,30.37
2019-03-09T20:49:09.652Z,30.50
2019-03-09T20:51:44.774Z,32.33
2019-03-09T20:54:38.839Z,31.73
2019-03-09T20:57:24.184Z,31.10
2019-03-09T21:00:01.457Z,31.60
2019-03-09T21:02:38.519Z,31.17
2019-03-09T21:05:17.424Z,31.33
2019-03-09T21:10:52.149Z,30.57
2019-03-09T21:13:32.105Z,30.20
2019-03-09T21:16:10.153Z,30.23
2019-03-09T21:18:46.396Z,31.30
2019-03-09T21:21:21.732Z,31.40
2019-03-09T21:23:56.747Z,32.37
2019-03-09T21:26:31.759Z,32.90
2019-03-09T21:29:09.697Z,32.57
2019-03-09T21:31:51.511Z,34.03
2019-03-09T21:34:26.330Z,31.23
2019-03-09T21:37:01.099Z,32.83
2019-03-09T21:39:36.882Z,31.30
2019-03-09T21:42:11.671Z,32.73
2019-03-09T21:44:46.501Z,31.00
2019-03-09T21:47:21.229Z,31.03
2019-03-09T21:49:55.981Z,30.47
2019-03-09T21:52:30.768Z,31.10
2019-03-09T21:55:07.027Z,30.77
2019-03-09T21:57:41.951Z,31.40
2019-03-09T22:00:16.944Z,31.37
2019-03-09T22:02:51.906Z,30.70
2019-03-09T22:05:26.663Z,31.17
2019-03-09T22:08:01.416Z,31.20
2019-03-09T22:10:36.305Z,31.37
2019-03-09T22:13:11.119Z,30.43
2019-03-09T22:15:45.889Z,30.30
2019-03-09T22:18:20.661Z,30.23
2019-03-09T22:20:55.415Z,30.03
2019-03-09T22:23:30.163Z,30.20
2019-03-09T22:26:05.068Z,30.07
2019-03-09T22:28:39.822Z,30.57
2019-03-09T22:31:14.632Z,31.00
2019-03-09T22:33:49.385Z,30.60
2019-03-09T22:36:24.677Z,30.37
2019-03-09T22:38:59.423Z,30.10
2019-03-09T22:41:34.275Z,30.13
2019-03-09T22:44:09.038Z,30.23
2019-03-09T22:46:43.799Z,30.13
2019-03-09T22:49:18.568Z,30.70
2019-03-09T22:51:53.315Z,30.80
2019-03-09T22:54:28.147Z,30.57
2019-03-09T22:57:02.893Z,30.63
2019-03-09T22:59:37.663Z,31.23
2019-03-09T23:02:12.852Z,30.30
2019-03-09T23:04:47.681Z,30.90
2019-03-09T23:07:22.564Z,29.87
2019-03-09T23:09:57.391Z,30.00
2019-03-09T23:12:32.199Z,30.10
2019-03-09T23:15:08.282Z,30.73
2019-03-09T23:17:43.193Z,30.43
2019-03-09T23:20:18.006Z,30.30
2019-03-09T23:22:52.748Z,30.37
2019-03-09T23:25:28.343Z,30.57
2019-03-09T23:28:03.231Z,30.53
2019-03-09T23:30:38.363Z,30.43
2019-03-09T23:33:13.266Z,30.53
2019-03-09T23:35:48.027Z,30.30
2019-03-09T23:38:22.852Z,29.90
2019-03-09T23:40:57.678Z,30.53
2019-03-09T23:43:32.525Z,29.93
2019-03-09T23:46:07.423Z,30.47
2019-03-09T23:48:42.179Z,31.00
2019-03-09T23:51:17.088Z,30.50
2019-03-09T23:53:51.818Z,30.40
2019-03-09T23:56:26.655Z,30.40
2019-03-09T23:59:01.478Z,30.40
